Time;durP1;ratioP1;P1;durP2;ratioP2;P2;SDS_P1;SDS_P2;PMS_P1;PMS_P2;Temp;Humidity;BMP_temperature;BMP_pressure;BME280_temperature;BME280_humidity;BME280_pressure;Samples;Min_cycle;Max_cycle;Signal;HPM_P1;HPM_P2
2022/05/16 00:02:13;;;;;;;0.10;0.10;;;;;;;;;;1853387;75;26245;-50
2022/05/16 00:04:42;;;;;;;0.33;0.33;;;;;;;;;;1879704;75;26316;-53
2022/05/16 00:07:09;;;;;;;0.17;0.17;;;;;;;;;;1858204;75;27367;-50
2022/05/16 00:09:37;;;;;;;0.10;0.10;;;;;;;;;;1847791;76;26281;-51
2022/05/16 00:12:05;;;;;;;0.30;0.20;;;;;;;;;;1856459;76;26810;-48
2022/05/16 00:14:32;;;;;;;1.27;0.10;;;;;;;;;;1861941;76;26602;-52
2022/05/16 00:17:00;;;;;;;0.15;0.15;;;;;;;;;;1862974;76;26190;-54
2022/05/16 00:19:27;;;;;;;0.20;0.20;;;;;;;;;;1856724;76;25327;-49
2022/05/16 00:21:54;;;;;;;0.20;0.20;;;;;;;;;;1870312;76;26726;-52
2022/05/16 00:24:26;;;;;;;0.20;0.20;;;;;;;;;;1869401;76;26254;-55
2022/05/16 00:26:51;;;;;;;0.20;0.20;;;;;;;;;;1861140;75;26338;-49
2022/05/16 00:29:18;;;;;;;1.17;0.15;;;;;;;;;;1869900;75;26327;-49
2022/05/16 00:31:46;;;;;;;0.20;0.20;;;;;;;;;;1856331;76;26238;-51
2022/05/16 00:34:14;;;;;;;0.10;0.10;;;;;;;;;;1865484;76;26633;-54
2022/05/16 00:36:47;;;;;;;0.10;0.10;;;;;;;;;;1877631;76;26242;-48
2022/05/16 00:39:15;;;;;;;0.20;0.20;;;;;;;;;;1870213;75;26256;-49
2022/05/16 00:41:43;;;;;;;0.10;0.10;;;;;;;;;;1861967;75;26265;-53
2022/05/16 00:44:10;;;;;;;0.20;0.20;;;;;;;;;;1855647;76;26202;-47
2022/05/16 00:46:38;;;;;;;0.53;0.20;;;;;;;;;;1876907;76;26266;-48
2022/05/16 00:49:07;;;;;;;0.20;0.20;;;;;;;;;;1868821;76;26243;-50
2022/05/16 00:51:38;;;;;;;0.10;0.10;;;;;;;;;;1862105;75;26250;-50
2022/05/16 00:54:07;;;;;;;0.13;0.13;;;;;;;;;;1877390;76;26612;-47
2022/05/16 00:56:35;;;;;;;0.55;0.10;;;;;;;;;;1875435;76;26243;-50
2022/05/16 00:59:02;;;;;;;0.10;0.10;;;;;;;;;;1868200;76;26325;-54
2022/05/16 01:04:48;;;;;;;0.13;0.13;;;;;;;;;;1873467;76;26295;-51
2022/05/16 01:07:17;;;;;;;0.10;0.10;;;;;;;;;;1860558;76;26263;-55
2022/05/16 01:09:44;;;;;;;0.10;0.10;;;;;;;;;;1857613;76;26289;-48
2022/05/16 01:12:12;;;;;;;0.05;0.05;;;;;;;;;;1868975;76;26247;-50
2022/05/16 01:14:53;;;;;;;0.25;0.25;;;;;;;;;;1875393;75;26218;-50
2022/05/16 01:17:20;;;;;;;0.17;0.17;;;;;;;;;;1870773;76;26262;-48
2022/05/16 01:19:48;;;;;;;0.10;0.10;;;;;;;;;;1879390;76;26900;-46
2022/05/16 01:22:35;;;;;;;0.15;0.15;;;;;;;;;;1879759;75;26239;-49
2022/05/16 01:25:04;;;;;;;0.10;0.10;;;;;;;;;;1857630;75;26552;-49
2022/05/16 01:27:42;;;;;;;0.20;0.20;;;;;;;;;;1885220;75;26295;-49
2022/05/16 01:30:10;;;;;;;0.17;0.10;;;;;;;;;;1876558;75;26243;-49
2022/05/16 01:32:38;;;;;;;0.10;0.10;;;;;;;;;;1895014;75;26339;-50
2022/05/16 01:35:06;;;;;;;0.17;0.17;;;;;;;;;;1876474;75;26954;-53
2022/05/16 01:40:18;;;;;;;0.25;0.25;;;;;;;;;;1877416;75;26284;-53
2022/05/16 01:42:45;;;;;;;0.20;0.20;;;;;;;;;;1887583;75;26304;-48
2022/05/16 01:45:13;;;;;;;8.50;0.30;;;;;;;;;;1880987;75;26202;-49
2022/05/16 01:47:40;;;;;;;0.20;0.20;;;;;;;;;;1895398;75;26238;-49
2022/05/16 01:50:08;;;;;;;0.47;0.20;;;;;;;;;;1893772;74;26277;-50
2022/05/16 01:52:35;;;;;;;0.20;0.20;;;;;;;;;;1890059;75;26588;-48
2022/05/16 01:55:03;;;;;;;0.28;0.20;;;;;;;;;;1884621;75;26284;-53
2022/05/16 01:57:30;;;;;;;0.10;0.10;;;;;;;;;;1864451;75;26198;-48
2022/05/16 01:59:58;;;;;;;1.47;0.20;;;;;;;;;;1876239;74;26682;-47
2022/05/16 02:02:25;;;;;;;0.05;0.05;;;;;;;;;;1888942;75;26989;-51
2022/05/16 02:04:52;;;;;;;0.20;0.20;;;;;;;;;;1894611;75;26829;-51
2022/05/16 02:07:19;;;;;;;0.30;0.30;;;;;;;;;;1892644;75;26695;-51
2022/05/16 02:09:47;;;;;;;0.20;0.20;;;;;;;;;;1883467;75;26285;-50
2022/05/16 02:12:14;;;;;;;0.10;0.10;;;;;;;;;;1890582;74;26615;-50
2022/05/16 02:14:41;;;;;;;0.20;0.20;;;;;;;;;;1895463;75;26238;-51
2022/05/16 02:17:09;;;;;;;0.25;0.25;;;;;;;;;;1895534;75;26682;-48
2022/05/16 02:19:36;;;;;;;0.17;0.17;;;;;;;;;;1894847;75;26698;-53
2022/05/16 02:24:49;;;;;;;0.20;0.20;;;;;;;;;;1879083;75;26275;-49
2022/05/16 02:27:17;;;;;;;0.13;0.13;;;;;;;;;;1892014;75;26324;-51
2022/05/16 02:29:46;;;;;;;0.20;0.20;;;;;;;;;;1873897;75;26567;-48
2022/05/16 02:32:13;;;;;;;0.20;0.20;;;;;;;;;;1888574;74;26780;-50
2022/05/16 02:34:42;;;;;;;0.30;0.30;;;;;;;;;;1871068;74;26264;-49
2022/05/16 02:37:09;;;;;;;0.20;0.20;;;;;;;;;;1886155;75;26276;-52
2022/05/16 02:39:36;;;;;;;0.10;0.10;;;;;;;;;;1874821;75;26367;-55
2022/05/16 02:42:04;;;;;;;0.53;0.20;;;;;;;;;;1875212;75;26269;-53
2022/05/16 02:44:32;;;;;;;0.20;0.20;;;;;;;;;;1877593;75;26650;-53
2022/05/16 02:46:59;;;;;;;0.20;0.20;;;;;;;;;;1864470;74;26244;-53
2022/05/16 02:49:27;;;;;;;2.47;0.20;;;;;;;;;;1882290;75;26311;-55
2022/05/16 02:51:55;;;;;;;0.10;0.10;;;;;;;;;;1866867;75;26264;-50
2022/05/16 02:54:22;;;;;;;0.20;0.20;;;;;;;;;;1877823;75;26343;-52
2022/05/16 02:56:49;;;;;;;0.15;0.15;;;;;;;;;;1868540;75;26256;-53
2022/05/16 02:59:17;;;;;;;0.20;0.20;;;;;;;;;;1873034;75;26249;-55
2022/05/16 03:01:44;;;;;;;0.10;0.10;;;;;;;;;;1881365;75;27464;-55
2022/05/16 03:04:12;;;;;;;1.17;0.20;;;;;;;;;;1894195;75;26250;-48
2022/05/16 03:06:39;;;;;;;0.20;0.20;;;;;;;;;;1868067;75;26294;-50
2022/05/16 03:09:06;;;;;;;0.20;0.20;;;;;;;;;;1871840;74;26253;-53
2022/05/16 03:11:34;;;;;;;0.28;0.28;;;;;;;;;;1865720;75;26268;-53
2022/05/16 03:14:01;;;;;;;0.28;0.28;;;;;;;;;;1868075;75;26237;-56
2022/05/16 03:16:28;;;;;;;0.20;0.20;;;;;;;;;;1868224;75;26485;-51
2022/05/16 03:18:55;;;;;;;0.13;0.13;;;;;;;;;;1867119;75;26245;-50
2022/05/16 03:21:23;;;;;;;0.28;0.28;;;;;;;;;;1868918;75;26223;-48
2022/05/16 03:23:50;;;;;;;0.30;0.20;;;;;;;;;;1869967;75;26256;-49
2022/05/16 03:26:17;;;;;;;0.20;0.20;;;;;;;;;;1873061;75;26313;-50
2022/05/16 03:28:44;;;;;;;0.30;0.30;;;;;;;;;;1882329;75;26310;-48
2022/05/16 03:31:12;;;;;;;0.40;0.40;;;;;;;;;;1869118;76;26255;-50
2022/05/16 03:33:39;;;;;;;2.95;0.50;;;;;;;;;;1867306;75;26291;-48
2022/05/16 03:36:07;;;;;;;0.90;0.40;;;;;;;;;;1854189;76;26242;-50
2022/05/16 03:41:21;;;;;;;1.27;0.40;;;;;;;;;;1879568;76;26262;-51
2022/05/16 03:43:50;;;;;;;2.15;0.40;;;;;;;;;;1878207;75;27658;-52
2022/05/16 03:46:18;;;;;;;3.72;0.57;;;;;;;;;;1865691;75;26309;-47
2022/05/16 03:48:45;;;;;;;0.40;0.40;;;;;;;;;;1860199;76;26268;-55
2022/05/16 03:51:14;;;;;;;0.20;0.20;;;;;;;;;;1874200;76;26262;-51
2022/05/16 03:53:48;;;;;;;0.65;0.60;;;;;;;;;;1862674;76;26336;-53
2022/05/16 03:56:17;;;;;;;0.35;0.35;;;;;;;;;;1860652;75;26528;-48
2022/05/16 03:58:45;;;;;;;0.30;0.30;;;;;;;;;;1870087;76;26243;-52
2022/05/16 04:01:13;;;;;;;1.00;0.28;;;;;;;;;;1864564;76;26301;-54
2022/05/16 04:03:40;;;;;;;0.45;0.40;;;;;;;;;;1873229;76;26227;-51
2022/05/16 04:06:08;;;;;;;0.35;0.35;;;;;;;;;;1856297;75;26331;-49
2022/05/16 04:08:36;;;;;;;1.32;0.35;;;;;;;;;;1865844;76;26246;-52
2022/05/16 04:11:04;;;;;;;0.53;0.25;;;;;;;;;;1870018;76;26263;-51
2022/05/16 04:13:32;;;;;;;2.02;0.30;;;;;;;;;;1870678;76;26298;-52
2022/05/16 04:16:00;;;;;;;1.87;0.28;;;;;;;;;;1863459;76;26354;-52
2022/05/16 04:18:27;;;;;;;0.57;0.40;;;;;;;;;;1874304;75;26250;-51
2022/05/16 04:20:55;;;;;;;0.37;0.30;;;;;;;;;;1867079;76;26805;-51
2022/05/16 04:23:22;;;;;;;0.23;0.23;;;;;;;;;;1857204;76;26278;-53
2022/05/16 04:25:49;;;;;;;0.30;0.30;;;;;;;;;;1855550;76;26788;-53
2022/05/16 04:28:17;;;;;;;0.40;0.40;;;;;;;;;;1864423;75;26315;-54
2022/05/16 04:30:44;;;;;;;0.40;0.40;;;;;;;;;;1882049;74;26268;-46
2022/05/16 04:33:11;;;;;;;1.98;0.30;;;;;;;;;;1880231;75;26292;-53
2022/05/16 04:35:39;;;;;;;0.37;0.37;;;;;;;;;;1892094;75;26265;-51
2022/05/16 04:38:06;;;;;;;0.53;0.40;;;;;;;;;;1882896;75;26551;-47
2022/05/16 04:40:34;;;;;;;0.35;0.35;;;;;;;;;;1898988;74;26320;-47
2022/05/16 04:43:01;;;;;;;1.85;0.30;;;;;;;;;;1884722;74;26266;-49
2022/05/16 04:45:30;;;;;;;0.40;0.40;;;;;;;;;;1874610;75;26728;-52
2022/05/16 04:47:59;;;;;;;1.10;0.40;;;;;;;;;;1884834;75;26254;-53
2022/05/16 04:50:31;;;;;;;1.85;0.57;;;;;;;;;;1884119;75;26734;-52
2022/05/16 04:52:59;;;;;;;0.50;0.50;;;;;;;;;;1885981;74;26290;-45
2022/05/16 04:55:28;;;;;;;0.37;0.37;;;;;;;;;;1873648;74;26765;-48
2022/05/16 04:57:57;;;;;;;0.40;0.40;;;;;;;;;;1890078;75;26319;-48
2022/05/16 05:00:25;;;;;;;0.30;0.30;;;;;;;;;;1881451;75;26257;-49
2022/05/16 05:02:52;;;;;;;1.30;0.30;;;;;;;;;;1892428;75;26520;-49
2022/05/16 05:05:20;;;;;;;0.40;0.40;;;;;;;;;;1910144;74;26254;-51
2022/05/16 05:07:47;;;;;;;0.75;0.40;;;;;;;;;;1888013;75;26260;-50
2022/05/16 05:15:47;;;;;;;0.30;0.30;;;;;;;;;;1895265;74;26868;-51
2022/05/16 05:18:14;;;;;;;0.45;0.45;;;;;;;;;;1895037;75;26242;-54
2022/05/16 05:20:44;;;;;;;0.30;0.30;;;;;;;;;;1876049;75;26252;-51
2022/05/16 05:23:10;;;;;;;0.57;0.50;;;;;;;;;;1890483;75;26320;-46
2022/05/16 05:28:16;;;;;;;0.30;0.30;;;;;;;;;;1897083;74;27482;-53
2022/05/16 05:30:44;;;;;;;0.40;0.40;;;;;;;;;;1872790;76;26502;-51
2022/05/16 05:33:12;;;;;;;1.75;0.60;;;;;;;;;;1875258;76;26260;-51
2022/05/16 05:35:39;;;;;;;1.50;0.68;;;;;;;;;;1863562;76;26383;-50
2022/05/16 05:38:06;;;;;;;2.35;0.62;;;;;;;;;;1867128;76;26212;-48
2022/05/16 05:40:34;;;;;;;1.65;0.60;;;;;;;;;;1868091;76;26239;-45
2022/05/16 05:43:05;;;;;;;2.50;0.70;;;;;;;;;;1880275;76;26252;-46
2022/05/16 05:45:32;;;;;;;1.98;0.68;;;;;;;;;;1875643;76;26342;-54
2022/05/16 05:48:00;;;;;;;2.08;0.70;;;;;;;;;;1865736;76;26313;-52
2022/05/16 05:50:27;;;;;;;2.98;0.70;;;;;;;;;;1855006;75;26330;-55
2022/05/16 05:52:55;;;;;;;4.15;0.55;;;;;;;;;;1857686;76;26637;-49
2022/05/16 05:55:22;;;;;;;1.92;0.50;;;;;;;;;;1880673;76;26330;-46
2022/05/16 05:57:49;;;;;;;0.80;0.60;;;;;;;;;;1880463;76;26373;-49
2022/05/16 06:00:19;;;;;;;1.25;0.60;;;;;;;;;;1876492;76;26795;-47
2022/05/16 06:02:46;;;;;;;3.15;0.70;;;;;;;;;;1871676;75;26772;-49
2022/05/16 06:05:15;;;;;;;4.33;0.80;;;;;;;;;;1880595;76;26302;-46
2022/05/16 06:07:42;;;;;;;1.02;0.50;;;;;;;;;;1868973;76;26205;-45
2022/05/16 06:10:10;;;;;;;1.02;0.75;;;;;;;;;;1864815;76;26749;-46
2022/05/16 06:12:39;;;;;;;2.77;0.62;;;;;;;;;;1814406;79;26339;-49
2022/05/16 06:15:08;;;;;;;0.90;0.50;;;;;;;;;;1811066;79;26373;-52
2022/05/16 06:17:35;;;;;;;3.05;0.60;;;;;;;;;;1795235;79;26278;-51
2022/05/16 06:20:04;;;;;;;0.60;0.60;;;;;;;;;;1814018;79;26225;-52
2022/05/16 06:22:34;;;;;;;2.87;0.65;;;;;;;;;;1814281;78;26335;-48
2022/05/16 06:27:50;;;;;;;2.40;0.70;;;;;;;;;;1815686;76;26874;-52
2022/05/16 06:30:19;;;;;;;1.65;0.45;;;;;;;;;;1813763;77;26667;-52
2022/05/16 06:32:46;;;;;;;1.20;0.57;;;;;;;;;;1817389;77;26817;-46
2022/05/16 06:35:14;;;;;;;0.60;0.60;;;;;;;;;;1818332;77;26314;-51
2022/05/16 06:37:41;;;;;;;0.95;0.60;;;;;;;;;;1816711;77;25724;-50
2022/05/16 06:40:09;;;;;;;3.72;0.93;;;;;;;;;;1817103;77;26288;-50
2022/05/16 06:42:36;;;;;;;0.55;0.55;;;;;;;;;;1817171;77;26299;-49
2022/05/16 06:45:04;;;;;;;0.50;0.42;;;;;;;;;;1813201;77;26839;-52
2022/05/16 06:47:31;;;;;;;2.12;0.72;;;;;;;;;;1817392;77;26333;-51
2022/05/16 06:49:59;;;;;;;0.85;0.62;;;;;;;;;;1816937;77;26281;-51
2022/05/16 06:52:26;;;;;;;0.78;0.50;;;;;;;;;;1808414;77;26286;-46
2022/05/16 06:54:53;;;;;;;0.50;0.50;;;;;;;;;;1810048;77;26590;-48
2022/05/16 06:57:20;;;;;;;0.50;0.45;;;;;;;;;;1819839;77;26414;-44
2022/05/16 06:59:48;;;;;;;0.40;0.40;;;;;;;;;;1807571;77;26378;-49
2022/05/16 07:02:15;;;;;;;0.98;0.70;;;;;;;;;;1814895;77;26941;-43
2022/05/16 07:04:42;;;;;;;0.78;0.50;;;;;;;;;;1793885;77;26754;-50
2022/05/16 07:07:10;;;;;;;0.50;0.50;;;;;;;;;;1817063;77;27572;-47
2022/05/16 07:09:39;;;;;;;0.50;0.50;;;;;;;;;;1805211;77;26357;-49
2022/05/16 07:12:07;;;;;;;0.80;0.60;;;;;;;;;;1817201;77;26279;-47
2022/05/16 07:14:35;;;;;;;10.88;1.32;;;;;;;;;;1817065;77;27372;-54
2022/05/16 07:17:02;;;;;;;0.95;0.57;;;;;;;;;;1820082;77;26251;-44
2022/05/16 07:19:31;;;;;;;0.57;0.57;;;;;;;;;;1806720;77;26260;-49
2022/05/16 07:21:59;;;;;;;1.57;0.40;;;;;;;;;;1814948;77;26864;-55
2022/05/16 07:24:26;;;;;;;0.60;0.55;;;;;;;;;;1817050;77;26376;-50
2022/05/16 07:29:39;;;;;;;0.40;0.40;;;;;;;;;;1800453;78;26282;-44
2022/05/16 07:32:08;;;;;;;0.95;0.50;;;;;;;;;;1800338;78;26815;-46
2022/05/16 07:34:35;;;;;;;0.50;0.50;;;;;;;;;;1802858;78;26215;-46
2022/05/16 07:37:03;;;;;;;0.50;0.50;;;;;;;;;;1770979;80;26290;-48
2022/05/16 07:39:30;;;;;;;0.47;0.40;;;;;;;;;;1767644;81;26930;-49
2022/05/16 07:41:59;;;;;;;0.60;0.60;;;;;;;;;;1779140;79;26349;-50
2022/05/16 07:44:26;;;;;;;0.40;0.40;;;;;;;;;;1780126;79;26360;-42
2022/05/16 07:46:54;;;;;;;0.57;0.40;;;;;;;;;;1785154;79;26302;-42
2022/05/16 07:49:22;;;;;;;0.47;0.40;;;;;;;;;;1772250;79;26357;-49
2022/05/16 07:51:50;;;;;;;0.30;0.30;;;;;;;;;;1772220;79;26290;-46
2022/05/16 07:54:17;;;;;;;0.30;0.30;;;;;;;;;;1764715;79;26707;-46
2022/05/16 07:56:44;;;;;;;0.55;0.53;;;;;;;;;;1764220;79;26655;-49
2022/05/16 07:59:12;;;;;;;1.27;0.40;;;;;;;;;;1771988;79;26778;-51
2022/05/16 08:01:39;;;;;;;0.62;0.40;;;;;;;;;;1770646;80;26786;-46
2022/05/16 08:04:07;;;;;;;0.47;0.47;;;;;;;;;;1770691;80;26337;-52
2022/05/16 08:06:35;;;;;;;0.68;0.47;;;;;;;;;;1770668;80;26376;-50
2022/05/16 08:11:48;;;;;;;0.28;0.28;;;;;;;;;;1769060;79;26334;-44
2022/05/16 08:14:15;;;;;;;0.53;0.53;;;;;;;;;;1777571;79;26277;-48
2022/05/16 08:16:42;;;;;;;0.35;0.35;;;;;;;;;;1765898;80;26345;-44
2022/05/16 08:19:10;;;;;;;0.40;0.40;;;;;;;;;;1771036;79;26282;-50
2022/05/16 08:21:37;;;;;;;0.30;0.30;;;;;;;;;;1771285;79;26824;-49
2022/05/16 08:24:08;;;;;;;0.50;0.30;;;;;;;;;;1795162;79;26361;-50
2022/05/16 08:26:35;;;;;;;0.50;0.50;;;;;;;;;;1793350;79;26425;-48
2022/05/16 08:29:03;;;;;;;0.47;0.40;;;;;;;;;;1795376;78;26292;-49
2022/05/16 08:31:31;;;;;;;0.62;0.40;;;;;;;;;;1804488;77;26291;-51
2022/05/16 08:33:58;;;;;;;0.82;0.30;;;;;;;;;;1790652;79;26321;-47
2022/05/16 08:41:57;;;;;;;0.30;0.30;;;;;;;;;;1839411;77;26306;-44
2022/05/16 08:44:29;;;;;;;0.40;0.40;;;;;;;;;;1805893;78;26824;-53
2022/05/16 08:46:58;;;;;;;0.40;0.40;;;;;;;;;;1819555;78;26350;-53
2022/05/16 08:49:27;;;;;;;0.40;0.40;;;;;;;;;;1799712;78;26933;-50
2022/05/16 08:51:56;;;;;;;0.35;0.35;;;;;;;;;;1806392;78;26802;-45
2022/05/16 08:54:33;;;;;;;0.40;0.40;;;;;;;;;;1821051;78;26755;-47
2022/05/16 08:57:02;;;;;;;1.27;0.42;;;;;;;;;;1811120;79;26303;-50
2022/05/16 08:59:31;;;;;;;0.57;0.40;;;;;;;;;;1800203;79;28229;-48
2022/05/16 09:02:02;;;;;;;0.50;0.50;;;;;;;;;;1806996;79;26321;-50
2022/05/16 09:04:31;;;;;;;0.50;0.50;;;;;;;;;;1779313;80;26314;-47
2022/05/16 09:07:07;;;;;;;0.57;0.40;;;;;;;;;;1820225;78;26361;-53
2022/05/16 09:09:36;;;;;;;0.30;0.30;;;;;;;;;;1821062;78;26337;-45
2022/05/16 09:12:08;;;;;;;0.42;0.42;;;;;;;;;;1821672;78;26361;-46
2022/05/16 09:14:39;;;;;;;0.30;0.30;;;;;;;;;;1820249;78;26371;-49
2022/05/16 09:17:11;;;;;;;0.40;0.40;;;;;;;;;;1818240;78;26299;-44
2022/05/16 09:19:40;;;;;;;0.40;0.40;;;;;;;;;;1792680;79;28274;-48
2022/05/16 09:22:09;;;;;;;0.40;0.40;;;;;;;;;;1787016;80;26377;-49
2022/05/16 09:24:37;;;;;;;0.23;0.23;;;;;;;;;;1789587;80;26322;-48
2022/05/16 09:27:09;;;;;;;0.30;0.30;;;;;;;;;;1821577;78;26317;-47
2022/05/16 09:29:39;;;;;;;0.68;0.40;;;;;;;;;;1793109;79;26392;-48
2022/05/16 09:32:08;;;;;;;0.40;0.40;;;;;;;;;;1821986;78;26325;-45
2022/05/16 09:34:35;;;;;;;0.40;0.40;;;;;;;;;;1786533;79;26800;-46
2022/05/16 09:37:03;;;;;;;0.40;0.40;;;;;;;;;;1821055;78;26283;-43
2022/05/16 09:39:35;;;;;;;0.20;0.20;;;;;;;;;;1786676;80;26350;-45
2022/05/16 09:42:13;;;;;;;0.40;0.40;;;;;;;;;;1778728;80;26364;-43
2022/05/16 09:44:42;;;;;;;0.40;0.40;;;;;;;;;;1780588;80;26786;-55
2022/05/16 09:47:19;;;;;;;0.35;0.35;;;;;;;;;;1805340;78;26794;-51
2022/05/16 09:49:48;;;;;;;0.30;0.30;;;;;;;;;;1812248;79;26924;-59
2022/05/16 09:52:17;;;;;;;0.40;0.40;;;;;;;;;;1793703;79;26743;-55
2022/05/16 09:54:45;;;;;;;0.40;0.30;;;;;;;;;;1812105;79;26287;-60
2022/05/16 09:57:22;;;;;;;0.65;0.30;;;;;;;;;;1811676;79;26962;-58
2022/05/16 09:59:54;;;;;;;0.40;0.40;;;;;;;;;;1803335;79;26348;-51
2022/05/16 10:02:26;;;;;;;0.20;0.20;;;;;;;;;;1813028;79;26335;-56
2022/05/16 10:04:55;;;;;;;0.30;0.30;;;;;;;;;;1814370;79;26344;-59
2022/05/16 10:07:24;;;;;;;0.28;0.28;;;;;;;;;;1809131;79;26743;-52
2022/05/16 10:09:53;;;;;;;0.40;0.40;;;;;;;;;;1802083;78;26378;-49
2022/05/16 10:12:21;;;;;;;0.20;0.20;;;;;;;;;;1812344;79;26341;-53
2022/05/16 10:14:49;;;;;;;0.40;0.40;;;;;;;;;;1810078;79;26672;-49
2022/05/16 10:17:18;;;;;;;0.50;0.50;;;;;;;;;;1811889;79;26219;-46
2022/05/16 10:19:45;;;;;;;0.35;0.35;;;;;;;;;;1819256;78;26330;-46
2022/05/16 10:22:14;;;;;;;0.30;0.30;;;;;;;;;;1805689;79;26817;-51
2022/05/16 10:24:43;;;;;;;1.10;0.45;;;;;;;;;;1818285;77;26798;-46
2022/05/16 10:27:12;;;;;;;0.30;0.30;;;;;;;;;;1821689;78;26275;-51
2022/05/16 10:29:41;;;;;;;0.40;0.20;;;;;;;;;;1809971;78;26386;-52
2022/05/16 10:34:56;;;;;;;0.40;0.40;;;;;;;;;;1779633;78;26344;-49
2022/05/16 10:37:25;;;;;;;0.20;0.20;;;;;;;;;;1793024;80;26291;-50
2022/05/16 10:39:54;;;;;;;0.25;0.25;;;;;;;;;;1794606;80;26727;-50
2022/05/16 10:42:24;;;;;;;0.40;0.40;;;;;;;;;;1831905;77;25339;-48
2022/05/16 10:44:53;;;;;;;0.30;0.30;;;;;;;;;;1824577;78;26820;-45
2022/05/16 10:47:33;;;;;;;0.40;0.40;;;;;;;;;;1815062;79;26661;-47
2022/05/16 10:50:19;;;;;;;1.80;0.30;;;;;;;;;;1814599;79;26288;-48
2022/05/16 10:52:48;;;;;;;1.25;0.30;;;;;;;;;;1807015;78;26889;-47
2022/05/16 10:55:15;;;;;;;0.45;0.45;;;;;;;;;;1811981;78;26345;-47
2022/05/16 10:57:44;;;;;;;0.40;0.40;;;;;;;;;;1828477;78;26302;-45
2022/05/16 11:00:18;;;;;;;0.20;0.20;;;;;;;;;;1816689;78;26948;-48
2022/05/16 11:03:03;;;;;;;0.40;0.40;;;;;;;;;;1821924;78;26848;-50
2022/05/16 11:05:39;;;;;;;0.37;0.37;;;;;;;;;;1824435;78;26291;-48
2022/05/16 11:08:17;;;;;;;0.23;0.23;;;;;;;;;;1828098;78;26376;-49
2022/05/16 11:10:55;;;;;;;0.20;0.20;;;;;;;;;;1780555;80;26354;-48
2022/05/16 11:13:36;;;;;;;0.30;0.30;;;;;;;;;;1824251;78;26740;-48
2022/05/16 11:16:05;;;;;;;1.35;0.30;;;;;;;;;;1788547;79;26286;-49
2022/05/16 11:18:52;;;;;;;0.33;0.33;;;;;;;;;;1824022;78;26271;-47
2022/05/16 11:21:36;;;;;;;0.37;0.37;;;;;;;;;;1825659;78;26714;-48
2022/05/16 11:24:05;;;;;;;0.50;0.50;;;;;;;;;;1811132;78;26797;-47
2022/05/16 11:26:34;;;;;;;0.45;0.45;;;;;;;;;;1829109;77;26252;-50
2022/05/16 11:29:17;;;;;;;0.20;0.20;;;;;;;;;;1824593;78;26275;-48
2022/05/16 11:31:56;;;;;;;0.30;0.30;;;;;;;;;;1800331;79;26278;-47
2022/05/16 11:34:25;;;;;;;0.40;0.40;;;;;;;;;;1811168;79;26733;-44
2022/05/16 11:36:54;;;;;;;0.30;0.30;;;;;;;;;;1845511;77;26653;-49
2022/05/16 11:39:35;;;;;;;0.55;0.20;;;;;;;;;;1844725;77;26718;-49
2022/05/16 11:42:11;;;;;;;0.30;0.30;;;;;;;;;;1845338;77;26685;-49
2022/05/16 11:44:56;;;;;;;0.20;0.20;;;;;;;;;;1807747;79;26341;-52
2022/05/16 11:47:25;;;;;;;1.98;0.23;;;;;;;;;;1797430;79;26295;-56
2022/05/16 11:50:00;;;;;;;0.20;0.20;;;;;;;;;;1804863;79;26944;-54
2022/05/16 11:52:31;;;;;;;0.30;0.30;;;;;;;;;;1807889;79;26268;-53
2022/05/16 11:55:00;;;;;;;0.13;0.13;;;;;;;;;;1806853;79;27207;-54
2022/05/16 12:03:01;;;;;;;0.53;0.35;;;;;;;;;;1846274;77;26221;-47
2022/05/16 12:05:30;;;;;;;0.20;0.20;;;;;;;;;;1835448;77;26278;-47
2022/05/16 12:08:02;;;;;;;0.20;0.20;;;;;;;;;;1842975;76;26315;-52
2022/05/16 12:10:30;;;;;;;0.30;0.30;;;;;;;;;;1841994;77;26342;-45
2022/05/16 12:13:18;;;;;;;0.30;0.30;;;;;;;;;;1847331;77;26558;-46
2022/05/16 12:15:46;;;;;;;0.23;0.20;;;;;;;;;;1806380;79;26269;-44
2022/05/16 12:18:21;;;;;;;0.30;0.30;;;;;;;;;;1810648;79;28777;-44
2022/05/16 12:20:50;;;;;;;0.20;0.20;;;;;;;;;;1801334;79;26283;-47
2022/05/16 12:23:19;;;;;;;0.40;0.40;;;;;;;;;;1813947;79;26851;-49
2022/05/16 12:25:46;;;;;;;0.10;0.10;;;;;;;;;;1769722;79;26824;-46
2022/05/16 12:28:15;;;;;;;0.98;0.20;;;;;;;;;;1763675;80;26785;-45
2022/05/16 12:30:44;;;;;;;0.30;0.30;;;;;;;;;;1843432;77;26312;-46
2022/05/16 12:33:25;;;;;;;0.20;0.20;;;;;;;;;;1832778;77;28298;-44
2022/05/16 12:35:53;;;;;;;0.20;0.20;;;;;;;;;;1843102;77;26274;-45
2022/05/16 12:38:22;;;;;;;0.20;0.20;;;;;;;;;;1846046;77;26373;-46
2022/05/16 12:40:51;;;;;;;0.20;0.20;;;;;;;;;;1811948;79;26276;-46
2022/05/16 12:43:29;;;;;;;0.17;0.17;;;;;;;;;;1814692;78;26280;-45
2022/05/16 12:46:04;;;;;;;0.10;0.10;;;;;;;;;;1814863;78;26797;-57
2022/05/16 12:48:50;;;;;;;0.20;0.20;;;;;;;;;;1798527;79;26278;-49
2022/05/16 12:51:21;;;;;;;0.25;0.25;;;;;;;;;;1811978;77;26283;-45
2022/05/16 12:54:07;;;;;;;0.30;0.30;;;;;;;;;;1803645;79;26837;-45
2022/05/16 12:56:36;;;;;;;0.15;0.15;;;;;;;;;;1796979;77;26347;-53
2022/05/16 12:59:10;;;;;;;0.10;0.10;;;;;;;;;;1806757;78;26302;-52
2022/05/16 13:01:45;;;;;;;0.13;0.13;;;;;;;;;;1811348;79;26314;-47
2022/05/16 13:04:14;;;;;;;0.10;0.10;;;;;;;;;;1807994;79;26272;-41
2022/05/16 13:06:43;;;;;;;0.20;0.20;;;;;;;;;;1804144;78;26283;-51
2022/05/16 13:09:13;;;;;;;2.62;0.45;;;;;;;;;;1807871;78;26319;-51
2022/05/16 13:11:43;;;;;;;0.30;0.20;;;;;;;;;;1805980;78;26386;-46
2022/05/16 13:14:12;;;;;;;0.10;0.10;;;;;;;;;;1808719;78;26298;-50
2022/05/16 13:16:41;;;;;;;0.30;0.23;;;;;;;;;;1806230;79;26341;-48
2022/05/16 13:19:10;;;;;;;0.10;0.10;;;;;;;;;;1802408;79;27030;-56
2022/05/16 13:21:40;;;;;;;0.25;0.25;;;;;;;;;;1801463;79;26344;-47
2022/05/16 13:24:09;;;;;;;0.20;0.20;;;;;;;;;;1792193;79;26299;-48
2022/05/16 13:29:22;;;;;;;0.30;0.15;;;;;;;;;;1797119;78;26787;-48
2022/05/16 13:31:56;;;;;;;0.20;0.20;;;;;;;;;;1789592;79;26778;-48
2022/05/16 13:34:35;;;;;;;1.12;0.20;;;;;;;;;;1805465;79;26290;-45
2022/05/16 13:37:04;;;;;;;0.20;0.20;;;;;;;;;;1806427;79;27220;-45
2022/05/16 13:39:33;;;;;;;0.05;0.05;;;;;;;;;;1804797;79;26342;-46
2022/05/16 13:42:01;;;;;;;0.10;0.10;;;;;;;;;;1806494;79;26299;-43
2022/05/16 13:44:39;;;;;;;0.15;0.15;;;;;;;;;;1789950;79;26286;-44
2022/05/16 13:47:07;;;;;;;0.82;0.17;;;;;;;;;;1796808;79;26307;-45
2022/05/16 13:49:35;;;;;;;0.10;0.10;;;;;;;;;;1803150;79;26275;-51
2022/05/16 13:52:03;;;;;;;0.20;0.20;;;;;;;;;;1802238;79;26292;-47
2022/05/16 13:54:35;;;;;;;1.37;0.20;;;;;;;;;;1805926;79;26287;-47
2022/05/16 13:57:07;;;;;;;0.13;0.10;;;;;;;;;;1799530;79;26362;-50
2022/05/16 13:59:35;;;;;;;1.47;0.10;;;;;;;;;;1797753;79;26924;-50
2022/05/16 14:02:08;;;;;;;0.20;0.20;;;;;;;;;;1804602;79;26800;-47
2022/05/16 14:04:35;;;;;;;0.20;0.20;;;;;;;;;;1805630;79;26299;-48
2022/05/16 14:07:04;;;;;;;0.10;0.10;;;;;;;;;;1801870;78;26736;-45
2022/05/16 14:09:35;;;;;;;0.17;0.17;;;;;;;;;;1805469;78;26871;-48
2022/05/16 14:12:04;;;;;;;0.10;0.10;;;;;;;;;;1798544;79;26627;-48
2022/05/16 14:14:33;;;;;;;0.17;0.10;;;;;;;;;;1807349;79;26232;-45
2022/05/16 14:17:02;;;;;;;0.00;0.00;;;;;;;;;;1804495;79;26298;-50
2022/05/16 14:19:31;;;;;;;0.10;0.10;;;;;;;;;;1803687;79;26363;-46
2022/05/16 14:22:01;;;;;;;0.10;0.10;;;;;;;;;;1805700;79;26296;-49
2022/05/16 14:24:36;;;;;;;0.03;0.03;;;;;;;;;;1802155;79;26370;-53
2022/05/16 14:27:04;;;;;;;0.00;0.00;;;;;;;;;;1802767;79;26276;-47
2022/05/16 14:29:34;;;;;;;0.10;0.10;;;;;;;;;;1798003;79;26405;-49
2022/05/16 14:32:03;;;;;;;0.30;0.30;;;;;;;;;;1805497;79;26760;-47
2022/05/16 14:34:44;;;;;;;0.13;0.13;;;;;;;;;;1814703;79;26279;-49
2022/05/16 14:37:22;;;;;;;0.25;0.25;;;;;;;;;;1812783;79;26287;-46
2022/05/16 14:39:52;;;;;;;0.10;0.10;;;;;;;;;;1802364;79;26294;-50
2022/05/16 14:42:23;;;;;;;0.10;0.10;;;;;;;;;;1815757;79;26291;-51
2022/05/16 14:44:58;;;;;;;0.10;0.10;;;;;;;;;;1809419;79;26349;-47
2022/05/16 14:47:39;;;;;;;0.00;0.00;;;;;;;;;;1812854;79;26341;-49
2022/05/16 14:50:01;;;;;;;0.00;0.00;;;;;;;;;;1815843;79;26338;-47
2022/05/16 14:52:31;;;;;;;0.15;0.15;;;;;;;;;;1816669;79;26276;-51
2022/05/16 14:55:00;;;;;;;1.30;0.10;;;;;;;;;;1807439;79;26354;-47
2022/05/16 14:57:28;;;;;;;0.17;0.17;;;;;;;;;;1797662;79;26804;-49
2022/05/16 14:59:55;;;;;;;0.10;0.10;;;;;;;;;;1822557;78;26358;-48
2022/05/16 15:05:08;;;;;;;0.42;0.03;;;;;;;;;;1828348;77;26355;-48
2022/05/16 15:07:37;;;;;;;0.03;0.03;;;;;;;;;;1826640;78;26260;-48
2022/05/16 15:10:06;;;;;;;0.03;0.03;;;;;;;;;;1796266;78;26935;-45
2022/05/16 15:12:34;;;;;;;0.10;0.10;;;;;;;;;;1817221;79;26258;-47
2022/05/16 15:15:02;;;;;;;0.10;0.10;;;;;;;;;;1815474;79;26358;-50
2022/05/16 15:17:30;;;;;;;0.10;0.10;;;;;;;;;;1815764;79;26284;-49
2022/05/16 15:19:57;;;;;;;0.10;0.10;;;;;;;;;;1817096;79;26341;-51
2022/05/16 15:22:25;;;;;;;0.93;0.10;;;;;;;;;;1812431;79;26866;-51
2022/05/16 15:24:54;;;;;;;0.15;0.15;;;;;;;;;;1814542;79;27476;-49
2022/05/16 15:27:23;;;;;;;0.10;0.10;;;;;;;;;;1815138;79;26279;-46
2022/05/16 15:29:51;;;;;;;0.17;0.17;;;;;;;;;;1809465;79;26290;-47
2022/05/16 15:32:20;;;;;;;0.03;0.03;;;;;;;;;;1803219;79;26339;-50
2022/05/16 15:34:48;;;;;;;0.17;0.17;;;;;;;;;;1809033;79;26365;-53
2022/05/16 15:37:17;;;;;;;0.10;0.10;;;;;;;;;;1805177;79;26331;-52
2022/05/16 15:39:49;;;;;;;0.10;0.10;;;;;;;;;;1806322;79;26330;-48
2022/05/16 15:42:15;;;;;;;0.17;0.17;;;;;;;;;;1805533;79;26306;-49
2022/05/16 15:44:42;;;;;;;0.30;0.30;;;;;;;;;;1806737;79;26307;-53